createdAt,value
2018-01-28T00:00:08.876Z,101402.78
2018-01-28T00:02:36.484Z,101408.30
2018-01-28T00:05:04.005Z,101409.80
2018-01-28T00:07:31.522Z,101401.92
2018-01-28T00:09:58.984Z,101397.41
2018-01-28T00:12:26.474Z,101387.69
2018-01-28T00:14:54.092Z,101392.13
2018-01-28T00:17:21.554Z,101379.59
2018-01-28T00:19:49.011Z,101369.51
2018-01-28T00:22:16.555Z,101368.27
2018-01-28T00:24:44.156Z,101359.46
2018-01-28T00:27:11.629Z,101362.30
2018-01-28T00:29:39.092Z,101371.87
2018-01-28T00:32:06.551Z,101367.02
2018-01-28T00:34:34.105Z,101364.12
2018-01-28T00:37:01.606Z,101352.96
2018-01-28T00:39:29.047Z,101349.14
2018-01-28T00:41:57.636Z,101347.72
2018-01-28T00:44:25.109Z,101341.61
2018-01-28T00:46:52.586Z,101331.48
2018-01-28T00:49:20.055Z,101320.94
2018-01-28T00:51:47.576Z,101317.42
2018-01-28T00:54:15.034Z,101307.40
2018-01-28T00:56:42.561Z,101296.08
2018-01-28T00:59:10.032Z,101295.16
2018-01-28T01:01:37.485Z,101295.35
2018-01-28T01:04:05.064Z,101298.73
2018-01-28T01:06:32.516Z,101299.55
2018-01-28T01:09:00.045Z,101295.67
2018-01-28T01:11:27.583Z,101293.14
2018-01-28T01:13:55.042Z,101287.86
2018-01-28T01:16:22.612Z,101280.00
2018-01-28T01:18:50.070Z,101271.13
2018-01-28T01:21:17.543Z,101271.04
2018-01-28T01:23:45.033Z,101271.64
2018-01-28T01:26:12.603Z,101261.59
2018-01-28T01:28:40.070Z,101259.44
2018-01-28T01:31:07.550Z,101275.15
2018-01-28T01:33:35.110Z,101276.33
2018-01-28T01:36:02.560Z,101276.53
2018-01-28T01:38:30.052Z,101270.48
2018-01-28T01:40:57.509Z,101265.32
2018-01-28T01:43:25.002Z,101262.05
2018-01-28T01:45:52.453Z,101262.50
2018-01-28T01:48:19.966Z,101260.23
2018-01-28T01:50:47.507Z,101246.95
2018-01-28T01:53:14.976Z,101230.31
2018-01-28T01:55:42.415Z,101206.29
2018-01-28T01:58:09.859Z,101190.25
2018-01-28T02:00:37.379Z,101184.46
2018-01-28T02:03:04.843Z,101178.68
2018-01-28T02:05:32.304Z,101179.14
2018-01-28T02:07:59.797Z,101178.73
2018-01-28T02:10:27.385Z,101164.60
2018-01-28T02:12:54.841Z,101168.73
2018-01-28T02:15:22.313Z,101154.55
2018-01-28T02:17:49.768Z,101158.31
2018-01-28T02:20:17.572Z,101167.48
2018-01-28T02:22:45.013Z,101161.69
2018-01-28T02:25:12.480Z,101158.90
2018-01-28T02:27:39.936Z,101134.37
2018-01-28T02:30:07.380Z,101117.64
2018-01-28T02:32:34.885Z,101120.30
2018-01-28T02:35:02.327Z,101123.73
2018-01-28T02:37:29.838Z,101135.84
2018-01-28T02:39:57.259Z,101126.29
2018-01-28T02:42:24.793Z,101109.55
2018-01-28T02:44:52.252Z,101091.13
2018-01-28T02:47:19.746Z,101082.78
2018-01-28T02:49:47.192Z,101074.63
2018-01-28T02:52:14.665Z,101077.05
2018-01-28T02:54:42.229Z,101073.52
2018-01-28T02:57:09.679Z,101060.34
2018-01-28T02:59:37.145Z,101034.27
2018-01-28T03:02:04.645Z,101035.25
2018-01-28T03:04:32.103Z,101037.91
2018-01-28T03:06:59.559Z,101045.12
2018-01-28T03:09:27.044Z,101037.42
2018-01-28T03:11:54.493Z,101030.23
2018-01-28T03:14:21.949Z,101043.27
2018-01-28T03:16:49.607Z,101033.75
2018-01-28T03:19:17.054Z,101038.70
2018-01-28T03:21:44.533Z,101029.33
2018-01-28T03:24:11.977Z,101028.25
2018-01-28T03:26:39.437Z,101029.75
2018-01-28T03:29:06.896Z,101039.33
2018-01-28T03:31:34.349Z,101042.93
2018-01-28T03:34:01.880Z,101037.46
2018-01-28T03:36:29.301Z,101037.98
2018-01-28T03:38:56.764Z,101048.31
2018-01-28T03:41:24.256Z,101052.00
2018-01-28T03:43:51.717Z,101051.70
2018-01-28T03:46:19.199Z,101048.85
2018-01-28T03:48:46.687Z,101052.23
2018-01-28T03:51:14.241Z,101064.73
2018-01-28T03:53:41.680Z,101059.70
2018-01-28T03:56:09.202Z,101045.95
2018-01-28T03:58:36.669Z,101047.20
2018-01-28T04:01:04.160Z,101055.06
2018-01-28T04:03:31.606Z,101045.64
2018-01-28T04:05:59.155Z,101051.16
2018-01-28T04:08:26.618Z,101062.06
2018-01-28T04:10:54.101Z,101062.25
2018-01-28T04:13:21.676Z,101069.54
2018-01-28T04:15:49.120Z,101066.15
2018-01-28T04:18:16.600Z,101047.55
2018-01-28T04:20:44.049Z,101052.00
2018-01-28T04:23:11.556Z,101045.42
2018-01-28T04:25:39.114Z,101054.49
2018-01-28T04:28:06.689Z,101034.30
2018-01-28T04:30:34.149Z,101033.23
2018-01-28T04:33:01.616Z,101033.41
2018-01-28T04:35:29.073Z,101048.27
2018-01-28T04:37:56.565Z,101040.22
2018-01-28T04:40:24.032Z,101042.70
2018-01-28T04:42:51.487Z,101052.45
2018-01-28T04:45:18.956Z,101055.47
2018-01-28T04:47:46.396Z,101049.25
2018-01-28T04:50:13.865Z,101042.22
2018-01-28T04:52:41.308Z,101057.52
2018-01-28T04:55:08.760Z,101048.66
2018-01-28T04:57:36.208Z,101053.16
2018-01-28T05:00:03.693Z,101042.84
2018-01-28T05:02:31.158Z,101047.25
2018-01-28T05:04:58.627Z,101048.17
2018-01-28T05:07:26.089Z,101055.20
2018-01-28T05:09:53.557Z,101065.03
2018-01-28T05:12:21.016Z,101048.76
2018-01-28T05:14:48.509Z,101053.83
2018-01-28T05:17:15.987Z,101065.35
2018-01-28T05:19:43.437Z,101042.66
2018-01-28T05:22:10.915Z,101056.05
2018-01-28T05:24:38.369Z,101068.73
2018-01-28T05:27:05.867Z,101069.19
2018-01-28T05:29:33.313Z,101073.13
2018-01-28T05:32:00.800Z,101070.11
2018-01-28T05:34:28.378Z,101086.70
2018-01-28T05:39:22.650Z,101087.02
2018-01-28T05:41:50.128Z,101093.11
2018-01-28T05:44:17.596Z,101090.53
2018-01-28T05:46:45.056Z,101094.14
2018-01-28T05:49:12.545Z,101091.56
2018-01-28T05:51:40.004Z,101099.06
2018-01-28T05:54:07.473Z,101108.52
2018-01-28T05:56:35.040Z,101107.75
2018-01-28T05:59:02.566Z,101097.84
2018-01-28T06:01:30.040Z,101114.11
2018-01-28T06:03:57.513Z,101118.69
2018-01-28T06:06:25.068Z,101101.95
2018-01-28T06:08:52.527Z,101114.41
2018-01-28T06:11:19.992Z,101100.36
2018-01-28T06:13:47.440Z,101104.44
2018-01-28T06:16:14.908Z,101099.64
2018-01-28T06:18:42.361Z,101093.84
2018-01-28T06:21:09.845Z,101098.13
2018-01-28T06:23:37.297Z,101100.69
2018-01-28T06:26:04.765Z,101093.27
2018-01-28T06:28:32.248Z,101108.59
2018-01-28T06:30:59.697Z,101107.59
2018-01-28T06:33:27.233Z,101107.89
2018-01-28T06:35:54.701Z,101105.28
2018-01-28T06:38:22.169Z,101111.19
2018-01-28T06:40:49.684Z,101120.35
2018-01-28T06:43:17.232Z,101122.80
2018-01-28T06:45:44.673Z,101124.58
2018-01-28T06:48:12.143Z,101132.89
2018-01-28T06:50:39.630Z,101145.66
2018-01-28T06:53:07.213Z,101131.56
2018-01-28T06:55:34.665Z,101141.05
2018-01-28T06:58:02.132Z,101143.03
2018-01-28T07:00:29.618Z,101141.35
2018-01-28T07:02:57.085Z,101154.39
2018-01-28T07:05:24.659Z,101168.39
2018-01-28T07:07:52.113Z,101176.02
2018-01-28T07:10:19.610Z,101184.05
2018-01-28T07:12:47.164Z,101195.12
2018-01-28T07:15:14.671Z,101203.42
2018-01-28T07:17:42.129Z,101204.59
2018-01-28T07:20:09.677Z,101194.44
2018-01-28T07:22:37.206Z,101204.36
2018-01-28T07:25:04.644Z,101211.25
2018-01-28T07:27:32.109Z,101209.99
2018-01-28T07:29:59.561Z,101208.12
2018-01-28T07:32:27.019Z,101207.59
2018-01-28T07:34:54.476Z,101207.27
2018-01-28T07:37:21.932Z,101201.53
2018-01-28T07:39:49.425Z,101206.52
2018-01-28T07:42:17.187Z,101213.81
2018-01-28T07:44:44.636Z,101213.53
2018-01-28T07:47:12.153Z,101219.60
2018-01-28T07:49:39.610Z,101215.67
2018-01-28T07:52:07.092Z,101212.42
2018-01-28T07:54:34.578Z,101205.75
2018-01-28T07:57:02.036Z,101216.02
2018-01-28T07:59:29.527Z,101226.23
2018-01-28T08:01:56.986Z,101221.30
2018-01-28T08:04:24.460Z,101226.22
2018-01-28T08:06:51.930Z,101224.59
2018-01-28T08:09:19.381Z,101215.77
2018-01-28T08:14:54.431Z,101213.99
2018-01-28T08:17:21.885Z,101217.12
2018-01-28T08:19:49.332Z,101213.88
2018-01-28T08:22:16.806Z,101210.37
2018-01-28T08:24:44.259Z,101234.28
2018-01-28T08:27:14.518Z,101238.46
2018-01-28T08:29:41.976Z,101241.00
2018-01-28T08:32:09.492Z,101235.39
2018-01-28T08:34:36.953Z,101242.09
2018-01-28T08:37:04.445Z,101229.19
2018-01-28T08:39:31.918Z,101230.08
2018-01-28T08:41:59.388Z,101227.34
2018-01-28T08:44:26.860Z,101229.73
2018-01-28T08:46:54.328Z,101233.91
2018-01-28T08:49:21.809Z,101230.94
2018-01-28T08:51:49.257Z,101239.63
2018-01-28T08:54:16.736Z,101246.97
2018-01-28T08:56:44.309Z,101252.05
2018-01-28T08:59:11.881Z,101249.06
2018-01-28T09:01:39.369Z,101265.88
2018-01-28T09:04:06.885Z,101260.58
2018-01-28T09:06:34.343Z,101264.05
2018-01-28T09:09:01.801Z,101273.53
2018-01-28T09:11:29.383Z,101273.63
2018-01-28T09:13:56.835Z,101273.33
2018-01-28T09:16:24.295Z,101264.23
2018-01-28T09:18:51.749Z,101271.59
2018-01-28T09:21:19.208Z,101271.59
2018-01-28T09:23:46.667Z,101298.11
2018-01-28T09:26:14.162Z,101292.58
2018-01-28T09:28:41.621Z,101296.89
2018-01-28T09:31:09.166Z,101302.56
2018-01-28T09:33:36.618Z,101314.46
2018-01-28T09:36:04.138Z,101311.38
2018-01-28T09:38:31.596Z,101304.66
2018-01-28T09:40:59.088Z,101296.42
2018-01-28T09:43:26.599Z,101301.28
2018-01-28T09:45:54.060Z,101304.13
2018-01-28T09:48:21.645Z,101304.00
2018-01-28T09:50:49.164Z,101304.08
2018-01-28T09:53:16.672Z,101306.23
2018-01-28T09:55:44.142Z,101327.35
2018-01-28T09:58:11.602Z,101316.55
2018-01-28T10:00:39.157Z,101305.47
2018-01-28T10:03:06.650Z,101302.16
2018-01-28T10:05:34.121Z,101312.27
2018-01-28T10:08:01.690Z,101305.95
2018-01-28T10:10:29.271Z,101315.71
2018-01-28T10:12:56.821Z,101320.16
2018-01-28T10:15:24.290Z,101315.27
2018-01-28T10:17:51.762Z,101314.41
2018-01-28T10:20:19.247Z,101327.46
2018-01-28T10:22:46.803Z,101322.11
2018-01-28T10:25:14.362Z,101325.80
2018-01-28T10:27:41.853Z,101331.75
2018-01-28T10:30:09.423Z,101329.28
2018-01-28T10:32:36.977Z,101321.94
2018-01-28T10:35:04.440Z,101326.69
2018-01-28T10:37:31.908Z,101320.98
2018-01-28T10:39:59.399Z,101308.11
2018-01-28T10:42:27.001Z,101311.52
2018-01-28T10:44:54.449Z,101309.01
2018-01-28T10:47:22.120Z,101312.52
2018-01-28T10:49:49.593Z,101305.38
2018-01-28T10:52:17.165Z,101311.10
2018-01-28T10:54:44.658Z,101311.27
2018-01-28T10:57:12.127Z,101311.99
2018-01-28T10:59:39.615Z,101313.56
2018-01-28T11:02:07.100Z,101315.24
2018-01-28T11:04:34.581Z,101332.34
2018-01-28T11:07:02.036Z,101324.41
2018-01-28T11:09:29.501Z,101324.87
2018-01-28T11:11:56.998Z,101322.66
2018-01-28T11:14:24.498Z,101322.53
2018-01-28T11:16:52.018Z,101324.59
2018-01-28T11:19:19.504Z,101321.55
2018-01-28T11:21:46.998Z,101326.23
2018-01-28T11:24:14.486Z,101325.37
2018-01-28T11:26:42.040Z,101308.37
2018-01-28T11:29:09.535Z,101310.19
2018-01-28T11:31:37.011Z,101316.90
2018-01-28T11:34:04.533Z,101317.45
2018-01-28T11:36:31.984Z,101310.98
2018-01-28T11:38:59.557Z,101309.91
2018-01-28T11:41:27.081Z,101310.69
2018-01-28T11:43:54.697Z,101325.48
2018-01-28T11:46:22.259Z,101318.05
2018-01-28T11:48:49.706Z,101310.47
2018-01-28T11:51:17.265Z,101304.42
2018-01-28T11:53:44.748Z,101313.73
2018-01-28T11:56:12.318Z,101287.69
2018-01-28T11:58:39.806Z,101294.61
2018-01-28T12:01:07.511Z,101295.56
2018-01-28T12:03:35.086Z,101305.84
2018-01-28T12:06:02.532Z,101293.64
2018-01-28T12:08:30.056Z,101301.85
2018-01-28T12:10:57.521Z,101300.06
2018-01-28T12:13:25.001Z,101290.41
2018-01-28T12:15:52.489Z,101302.53
2018-01-28T12:18:19.996Z,101309.41
2018-01-28T12:20:47.513Z,101318.30
2018-01-28T12:23:14.978Z,101312.85
2018-01-28T12:25:42.432Z,101316.00
2018-01-28T12:28:09.941Z,101311.24
2018-01-28T12:30:37.421Z,101314.98
2018-01-28T12:33:04.909Z,101313.79
2018-01-28T12:35:32.469Z,101323.16
2018-01-28T12:37:59.923Z,101315.50
2018-01-28T12:40:27.390Z,101313.25
2018-01-28T12:42:54.869Z,101317.20
2018-01-28T12:45:22.411Z,101297.73
2018-01-28T12:47:49.920Z,101304.25
2018-01-28T12:50:17.385Z,101315.19
2018-01-28T12:52:44.887Z,101324.81
2018-01-28T12:55:12.482Z,101316.04
2018-01-28T12:57:39.947Z,101297.76
2018-01-28T13:00:07.506Z,101305.16
2018-01-28T13:02:35.043Z,101303.69
2018-01-28T13:05:02.501Z,101292.23
2018-01-28T13:07:29.969Z,101299.43
2018-01-28T13:09:57.433Z,101297.52
2018-01-28T13:12:24.937Z,101296.28
2018-01-28T13:14:52.439Z,101298.59
2018-01-28T13:17:19.955Z,101297.88
2018-01-28T13:19:47.421Z,101301.37
2018-01-28T13:22:14.934Z,101297.55
2018-01-28T13:24:42.478Z,101312.71
2018-01-28T13:27:09.977Z,101301.23
2018-01-28T13:29:37.506Z,101308.40
2018-01-28T13:32:04.948Z,101305.95
2018-01-28T13:34:32.480Z,101302.56
2018-01-28T13:36:59.953Z,101305.59
2018-01-28T13:39:27.489Z,101301.55
2018-01-28T13:41:54.951Z,101295.56
2018-01-28T13:44:22.418Z,101302.23
2018-01-28T13:46:49.886Z,101299.98
2018-01-28T13:49:17.424Z,101299.95
2018-01-28T13:51:44.887Z,101286.96
2018-01-28T13:54:12.692Z,101283.73
2018-01-28T13:56:40.291Z,101285.75
2018-01-28T13:59:07.782Z,101287.69
2018-01-28T14:01:35.287Z,101285.22
2018-01-28T14:04:02.791Z,101271.00
2018-01-28T14:06:30.259Z,101277.59
2018-01-28T14:08:57.808Z,101274.03
2018-01-28T14:11:25.231Z,101275.75
2018-01-28T14:13:52.768Z,101278.05
2018-01-28T14:16:20.219Z,101273.83
2018-01-28T14:18:47.748Z,101273.30
2018-01-28T14:21:15.251Z,101278.78
2018-01-28T14:23:42.732Z,101285.84
2018-01-28T14:26:10.270Z,101288.19
2018-01-28T14:28:37.764Z,101279.59
2018-01-28T14:31:05.262Z,101280.22
2018-01-28T14:33:32.801Z,101286.55
2018-01-28T14:36:00.311Z,101292.20
2018-01-28T14:38:27.763Z,101300.33
2018-01-28T14:40:55.278Z,101294.21
2018-01-28T14:43:22.738Z,101300.47
2018-01-28T14:45:50.253Z,101291.36
2018-01-28T14:48:17.719Z,101297.28
2018-01-28T14:50:45.198Z,101290.02
2018-01-28T14:53:12.653Z,101285.07
2018-01-28T14:55:40.161Z,101282.77
2018-01-28T14:58:07.622Z,101280.98
2018-01-28T15:00:35.205Z,101283.26
2018-01-28T15:03:02.728Z,101272.02
2018-01-28T15:05:30.186Z,101274.52
2018-01-28T15:07:57.650Z,101274.89
2018-01-28T15:10:25.125Z,101283.23
2018-01-28T15:12:52.646Z,101285.17
2018-01-28T15:15:20.133Z,101282.85
2018-01-28T15:17:47.629Z,101276.23
2018-01-28T15:20:15.088Z,101269.19
2018-01-28T15:22:42.814Z,101266.17
2018-01-28T15:25:10.288Z,101267.78
2018-01-28T15:27:37.754Z,101269.38
2018-01-28T15:30:05.319Z,101270.76
2018-01-28T15:32:32.805Z,101269.70
2018-01-28T15:35:00.315Z,101274.31
2018-01-28T15:37:27.857Z,101271.20
2018-01-28T15:39:55.337Z,101255.88
2018-01-28T15:42:22.836Z,101261.09
2018-01-28T15:44:50.372Z,101255.39
2018-01-28T15:47:17.880Z,101253.69
2018-01-28T15:49:45.420Z,101256.80
2018-01-28T15:52:12.890Z,101250.58
2018-01-28T15:54:40.447Z,101244.59
2018-01-28T15:57:08.008Z,101245.80
2018-01-28T15:59:35.504Z,101241.17
2018-01-28T16:02:02.986Z,101238.59
2018-01-28T16:04:30.490Z,101254.97
2018-01-28T16:06:58.025Z,101257.44
2018-01-28T16:09:25.538Z,101250.78
2018-01-28T16:11:53.098Z,101260.69
2018-01-28T16:14:20.588Z,101251.05
2018-01-28T16:16:48.181Z,101257.37
2018-01-28T16:19:15.640Z,101256.84
2018-01-28T16:21:43.176Z,101263.70
2018-01-28T16:24:10.704Z,101257.16
2018-01-28T16:26:38.235Z,101255.70
2018-01-28T16:29:05.698Z,101256.31
2018-01-28T16:31:33.185Z,101258.16
2018-01-28T16:34:00.696Z,101258.88
2018-01-28T16:36:28.191Z,101266.00
2018-01-28T16:38:55.723Z,101265.53
2018-01-28T16:41:23.350Z,101274.93
2018-01-28T16:43:50.864Z,101275.16
2018-01-28T16:46:18.334Z,101282.33
2018-01-28T16:48:45.852Z,101274.40
2018-01-28T16:51:13.324Z,101271.72
2018-01-28T16:53:40.867Z,101279.00
2018-01-28T16:56:08.367Z,101281.27
2018-01-28T16:58:35.881Z,101286.57
2018-01-28T17:01:03.390Z,101295.03
2018-01-28T17:03:30.919Z,101291.88
2018-01-28T17:05:58.427Z,101296.34
2018-01-28T17:08:25.883Z,101286.88
2018-01-28T17:10:53.489Z,101290.59
2018-01-28T17:13:21.067Z,101292.69
2018-01-28T17:15:48.653Z,101276.99
2018-01-28T17:18:16.138Z,101278.55
2018-01-28T17:20:43.654Z,101274.55
2018-01-28T17:23:11.108Z,101278.38
2018-01-28T17:25:38.644Z,101279.89
2018-01-28T17:28:06.252Z,101280.20
2018-01-28T17:30:33.747Z,101280.73
2018-01-28T17:33:01.292Z,101280.73
2018-01-28T17:35:34.448Z,101280.66
2018-01-28T17:38:01.985Z,101286.66
2018-01-28T17:40:29.498Z,101286.89
2018-01-28T17:42:57.011Z,101278.06
2018-01-28T17:45:24.521Z,101273.70
2018-01-28T17:47:52.075Z,101269.60
2018-01-28T17:50:19.526Z,101276.77
2018-01-28T17:52:47.019Z,101277.76
2018-01-28T17:55:14.619Z,101279.09
2018-01-28T17:57:42.073Z,101279.00
2018-01-28T18:00:09.599Z,101280.78
2018-01-28T18:02:37.151Z,101284.44
2018-01-28T18:05:04.666Z,101282.97
2018-01-28T18:07:32.179Z,101283.14
2018-01-28T18:09:59.697Z,101286.57
2018-01-28T18:12:27.152Z,101293.71
2018-01-28T18:14:54.653Z,101284.30
2018-01-28T18:17:22.150Z,101283.90
2018-01-28T18:19:49.654Z,101276.91
2018-01-28T18:22:17.216Z,101274.05
2018-01-28T18:24:44.758Z,101273.61
2018-01-28T18:27:12.236Z,101281.40
2018-01-28T18:29:39.687Z,101274.94
2018-01-28T18:32:07.622Z,101269.58
2018-01-28T18:34:35.155Z,101270.09
2018-01-28T18:37:02.689Z,101275.50
2018-01-28T18:39:30.196Z,101270.47
2018-01-28T18:41:57.704Z,101272.89
2018-01-28T18:44:25.195Z,101265.19
2018-01-28T18:46:52.882Z,101270.00
2018-01-28T18:49:20.436Z,101267.22
2018-01-28T18:51:47.928Z,101253.66
2018-01-28T18:54:15.456Z,101268.56
2018-01-28T18:56:42.910Z,101267.45
2018-01-28T18:59:10.432Z,101270.25
2018-01-28T19:01:37.980Z,101263.93
2018-01-28T19:04:05.577Z,101256.27
2018-01-28T19:06:33.085Z,101250.86
2018-01-28T19:09:00.603Z,101259.73
2018-01-28T19:11:28.204Z,101263.38
2018-01-28T19:13:55.738Z,101266.82
2018-01-28T19:16:23.309Z,101259.05
2018-01-28T19:18:50.878Z,101260.27
2018-01-28T19:21:18.324Z,101263.78
2018-01-28T19:23:45.820Z,101276.44
2018-01-28T19:26:13.341Z,101260.66
2018-01-28T19:28:40.858Z,101241.70
2018-01-28T19:31:08.438Z,101247.36
2018-01-28T19:33:36.042Z,101250.78
2018-01-28T19:36:03.731Z,101244.42
2018-01-28T19:38:31.233Z,101251.52
2018-01-28T19:40:58.838Z,101251.52
2018-01-28T19:43:26.340Z,101248.91
2018-01-28T19:45:53.820Z,101252.25
2018-01-28T19:48:21.349Z,101251.98
2018-01-28T19:50:48.907Z,101253.04
2018-01-28T19:53:16.377Z,101256.12
2018-01-28T19:55:43.973Z,101264.27
2018-01-28T19:58:11.500Z,101255.92
2018-01-28T20:00:38.998Z,101254.98
2018-01-28T20:03:06.884Z,101248.47
2018-01-28T20:05:34.462Z,101255.64
2018-01-28T20:08:02.028Z,101245.47
2018-01-28T20:10:29.868Z,101252.27
2018-01-28T20:12:57.377Z,101252.70
2018-01-28T20:15:24.927Z,101255.18
2018-01-28T20:17:52.538Z,101250.27
2018-01-28T20:20:19.983Z,101237.82
2018-01-28T20:22:47.482Z,101247.59
2018-01-28T20:25:15.022Z,101256.49
2018-01-28T20:27:42.538Z,101243.02
2018-01-28T20:30:10.053Z,101248.13
2018-01-28T20:32:37.884Z,101254.73
2018-01-28T20:35:05.401Z,101250.11
2018-01-28T20:37:32.918Z,101240.71
2018-01-28T20:40:01.341Z,101246.66
2018-01-28T20:42:28.873Z,101242.92
2018-01-28T20:44:56.372Z,101240.20
2018-01-28T20:47:23.928Z,101245.29
2018-01-28T20:49:51.418Z,101250.87
2018-01-28T20:52:18.965Z,101231.14
2018-01-28T20:54:46.642Z,101244.46
2018-01-28T20:57:14.106Z,101237.27
2018-01-28T20:59:42.003Z,101231.91
2018-01-28T21:02:09.548Z,101231.11
2018-01-28T21:04:37.066Z,101234.86
2018-01-28T21:07:04.537Z,101226.06
2018-01-28T21:09:32.021Z,101233.63
2018-01-28T21:11:59.649Z,101224.78
2018-01-28T21:14:27.406Z,101222.48
2018-01-28T21:16:55.019Z,101235.93
2018-01-28T21:19:22.603Z,101215.31
2018-01-28T21:21:50.157Z,101215.84
2018-01-28T21:24:17.671Z,101209.63
2018-01-28T21:26:45.180Z,101213.67
2018-01-28T21:29:12.740Z,101213.14
2018-01-28T21:31:40.184Z,101223.72
2018-01-28T21:34:07.688Z,101210.50
2018-01-28T21:36:35.297Z,101215.95
2018-01-28T21:39:03.062Z,101223.61
2018-01-28T21:41:30.633Z,101206.21
2018-01-28T21:43:58.162Z,101213.84
2018-01-28T21:46:25.667Z,101207.48
2018-01-28T21:48:53.477Z,101202.53
2018-01-28T21:51:20.926Z,101217.45
2018-01-28T21:53:48.420Z,101210.30
2018-01-28T21:56:15.972Z,101203.47
2018-01-28T21:58:43.419Z,101208.22
2018-01-28T22:01:10.941Z,101203.06
2018-01-28T22:03:38.449Z,101194.44
2018-01-28T22:06:05.968Z,101201.66
2018-01-28T22:08:33.455Z,101201.96
2018-01-28T22:11:01.002Z,101195.16
2018-01-28T22:13:28.508Z,101193.89
2018-01-28T22:15:56.023Z,101205.03
2018-01-28T22:18:23.579Z,101194.52
2018-01-28T22:20:51.194Z,101197.30
2018-01-28T22:23:19.072Z,101195.98
2018-01-28T22:25:46.629Z,101194.25
2018-01-28T22:28:14.098Z,101188.25
2018-01-28T22:30:42.452Z,101192.70
2018-01-28T22:33:10.069Z,101205.83
2018-01-28T22:35:37.767Z,101188.28
2018-01-28T22:38:05.244Z,101202.08
2018-01-28T22:40:32.750Z,101190.00
2018-01-28T22:43:00.208Z,101187.22
2018-01-28T22:45:27.656Z,101180.92
2018-01-28T22:47:55.191Z,101204.42
2018-01-28T22:50:22.758Z,101183.00
2018-01-28T22:52:50.227Z,101177.95
2018-01-28T22:55:17.773Z,101182.97
2018-01-28T22:57:45.399Z,101188.15
2018-01-28T23:00:12.914Z,101180.75
2018-01-28T23:02:40.388Z,101180.05
2018-01-28T23:05:08.013Z,101172.32
2018-01-28T23:07:35.506Z,101182.47
2018-01-28T23:10:03.009Z,101180.86
2018-01-28T23:12:30.494Z,101158.14
2018-01-28T23:14:58.057Z,101179.03
2018-01-28T23:17:25.556Z,101180.97
2018-01-28T23:19:53.145Z,101162.58
2018-01-28T23:22:20.592Z,101174.46
2018-01-28T23:24:48.147Z,101149.63
2018-01-28T23:27:15.591Z,101159.70
2018-01-28T23:29:43.228Z,101172.83
2018-01-28T23:32:10.694Z,101166.94
2018-01-28T23:34:38.187Z,101166.42
2018-01-28T23:37:05.654Z,101164.80
2018-01-28T23:39:33.100Z,101152.50
2018-01-28T23:42:00.564Z,101180.62
2018-01-28T23:44:28.010Z,101167.09
2018-01-28T23:46:55.532Z,101157.88
2018-01-28T23:49:22.989Z,101165.28
2018-01-28T23:51:50.459Z,101165.59
2018-01-28T23:54:17.913Z,101165.09
2018-01-28T23:56:45.383Z,101164.12
2018-01-28T23:59:12.828Z,101151.99
